createdAt,value
2022-10-17T00:05:09.375Z,26.10
2022-10-17T00:15:19.980Z,26.10
2022-10-17T00:25:28.947Z,27.10
2022-10-17T00:35:36.517Z,27.80
2022-10-17T00:45:45.474Z,27.70
2022-10-17T00:55:56.944Z,27.10
2022-10-17T01:06:05.599Z,26.00
2022-10-17T01:16:19.377Z,25.20
2022-10-17T01:26:40.410Z,24.60
2022-10-17T01:36:54.855Z,24.30
2022-10-17T01:47:07.357Z,24.20
2022-10-17T01:57:22.624Z,24.20
2022-10-17T02:07:30.019Z,24.10
2022-10-17T02:17:51.505Z,24.00
2022-10-17T02:28:03.900Z,24.00
2022-10-17T02:38:14.134Z,24.00
2022-10-17T02:48:27.476Z,23.90
2022-10-17T02:58:38.742Z,23.90
2022-10-17T03:08:46.276Z,23.90
2022-10-17T03:18:55.807Z,23.90
2022-10-17T03:29:02.863Z,23.90
2022-10-17T03:39:12.357Z,23.90
2022-10-17T03:49:19.683Z,23.90
2022-10-17T03:59:28.644Z,23.90
2022-10-17T04:09:43.633Z,23.90
2022-10-17T04:19:55.783Z,23.90
2022-10-17T04:30:03.295Z,23.80
2022-10-17T04:40:15.660Z,23.80
2022-10-17T04:50:30.702Z,23.80
2022-10-17T05:01:11.354Z,23.90
2022-10-17T05:11:22.940Z,23.80
2022-10-17T05:31:40.403Z,23.90
2022-10-17T05:41:49.889Z,23.90
2022-10-17T05:51:57.069Z,23.90
2022-10-17T06:02:06.967Z,23.90
2022-10-17T06:12:14.751Z,23.90
2022-10-17T06:22:24.658Z,24.00
2022-10-17T06:32:32.242Z,24.00
2022-10-17T06:42:41.062Z,23.90
2022-10-17T06:53:02.964Z,23.80
2022-10-17T07:03:34.924Z,23.80
2022-10-17T07:13:42.116Z,23.70
2022-10-17T07:23:51.432Z,23.70
2022-10-17T07:33:58.776Z,23.70
2022-10-17T07:44:07.736Z,23.70
2022-10-17T07:54:20.896Z,23.70
2022-10-17T08:04:29.618Z,23.70
2022-10-17T08:14:36.763Z,23.70
2022-10-17T08:24:47.339Z,23.60
2022-10-17T08:34:55.074Z,23.60
2022-10-17T08:45:19.236Z,23.70
2022-10-17T08:55:33.322Z,23.70
2022-10-17T09:05:53.413Z,23.60
2022-10-17T09:16:10.304Z,23.70
2022-10-17T09:26:19.581Z,23.60
2022-10-17T09:36:30.408Z,23.60
2022-10-17T09:46:41.247Z,23.60
2022-10-17T09:57:04.721Z,23.60
2022-10-17T10:07:16.138Z,23.60
2022-10-17T10:17:42.589Z,23.60
2022-10-17T10:27:51.926Z,23.60
2022-10-17T10:38:01.102Z,23.70
2022-10-17T10:48:22.166Z,23.60
2022-10-17T10:58:44.454Z,23.60
2022-10-17T11:09:04.372Z,23.60
2022-10-17T11:19:19.611Z,23.60
2022-10-17T11:29:32.754Z,23.60
2022-10-17T12:00:51.570Z,23.60
2022-10-17T12:11:04.287Z,23.60
2022-10-17T12:21:11.443Z,23.60
2022-10-17T12:31:33.871Z,23.60
2022-10-17T12:42:02.368Z,23.60
2022-10-17T13:03:10.022Z,23.60
2022-10-17T13:13:22.940Z,23.60
2022-10-17T13:23:32.668Z,23.60
2022-10-17T13:33:43.343Z,23.60
2022-10-17T13:43:50.755Z,23.60
2022-10-17T13:53:59.805Z,23.60
2022-10-17T14:04:17.099Z,23.70
2022-10-17T14:14:30.449Z,23.70
2022-10-17T14:24:43.127Z,23.60
2022-10-17T14:35:04.649Z,23.70
2022-10-17T14:45:21.284Z,23.90
2022-10-17T14:55:33.647Z,23.80
2022-10-17T15:05:40.809Z,24.00
2022-10-17T15:15:52.555Z,24.10
2022-10-17T15:25:59.554Z,24.20
2022-10-17T15:36:20.133Z,24.20
2022-10-17T15:46:29.174Z,24.00
2022-10-17T15:56:41.183Z,23.80
2022-10-17T16:06:48.272Z,23.80
2022-10-17T16:16:56.893Z,23.80
2022-10-17T16:27:03.920Z,23.90
2022-10-17T16:37:12.953Z,23.90
2022-10-17T16:47:20.959Z,23.90
2022-10-17T16:57:29.635Z,23.90
2022-10-17T17:07:36.673Z,23.90
2022-10-17T17:17:50.633Z,24.00
2022-10-17T17:28:00.344Z,23.90
2022-10-17T17:38:09.721Z,23.90
2022-10-17T17:48:16.921Z,23.80
2022-10-17T17:58:25.625Z,24.00
2022-10-17T18:08:32.569Z,24.10
2022-10-17T18:18:41.551Z,24.20
2022-10-17T18:28:48.719Z,24.30
2022-10-17T18:38:58.503Z,24.10
2022-10-17T18:49:06.112Z,23.70
2022-10-17T18:59:14.826Z,23.50
2022-10-17T19:09:21.841Z,23.50
2022-10-17T19:19:30.477Z,23.40
2022-10-17T19:29:38.041Z,23.30
2022-10-17T19:39:47.031Z,23.40
2022-10-17T19:49:54.196Z,23.50
2022-10-17T20:00:03.279Z,23.50
2022-10-17T20:10:19.427Z,23.60
2022-10-17T20:20:28.265Z,23.50
2022-10-17T20:30:35.198Z,23.50
2022-10-17T20:40:44.850Z,24.20
2022-10-17T20:50:52.079Z,24.50
2022-10-17T21:01:00.767Z,24.50
2022-10-17T21:11:12.221Z,24.40
2022-10-17T21:21:22.005Z,24.50
2022-10-17T21:31:30.224Z,24.60
2022-10-17T21:41:39.022Z,24.60
2022-10-17T21:51:48.395Z,24.90
2022-10-17T22:01:56.976Z,25.10
2022-10-17T22:12:06.742Z,25.00
2022-10-17T22:22:15.507Z,24.80
2022-10-17T22:32:22.712Z,25.00
2022-10-17T22:42:35.367Z,25.20
2022-10-17T22:52:43.063Z,25.20
2022-10-17T23:02:51.629Z,25.20
2022-10-17T23:12:58.612Z,25.30
2022-10-17T23:23:07.713Z,27.30
2022-10-17T23:33:15.687Z,28.80
2022-10-17T23:43:24.750Z,29.30
2022-10-17T23:53:31.928Z,28.90
